Time;durP1;ratioP1;P1;durP2;ratioP2;P2;SDS_P1;SDS_P2;PMS_P1;PMS_P2;Temp;Humidity;BMP_temperature;BMP_pressure;BME280_temperature;BME280_humidity;BME280_pressure;Samples;Min_cycle;Max_cycle;Signal;HPM_P1;HPM_P2
2022/04/16 00:01:55;;;;;;;1.27;0.77;;;11.80;95.20;;;;;;5092009;28;20031;-77
2022/04/16 00:04:22;;;;;;;0.75;0.73;;;11.80;95.70;;;;;;5092915;28;20020;-77
2022/04/16 00:06:47;;;;;;;0.80;0.70;;;11.80;95.50;;;;;;5092146;28;20381;-77
2022/04/16 00:09:13;;;;;;;1.13;0.60;;;11.80;95.80;;;;;;5092540;28;20027;-77
2022/04/16 00:11:39;;;;;;;0.90;0.77;;;11.70;95.70;;;;;;5093674;28;20032;-77
2022/04/16 00:14:04;;;;;;;0.80;0.77;;;11.60;95.80;;;;;;5091774;28;20388;-77
2022/04/16 00:16:31;;;;;;;0.80;0.70;;;11.60;96.10;;;;;;5092561;28;20055;-77
2022/04/16 00:18:57;;;;;;;0.68;0.60;;;11.60;96.00;;;;;;5093030;28;20032;-77
2022/04/16 00:21:23;;;;;;;0.95;0.65;;;11.60;96.30;;;;;;5091918;28;20097;-77
2022/04/16 00:23:49;;;;;;;2.35;0.70;;;11.50;96.40;;;;;;5091851;28;20021;-77
2022/04/16 00:26:15;;;;;;;2.30;0.85;;;11.50;96.40;;;;;;5092442;28;20023;-77
2022/04/16 00:28:41;;;;;;;1.40;0.95;;;11.50;96.40;;;;;;5092175;28;20536;-77
2022/04/16 00:31:07;;;;;;;0.90;0.80;;;11.50;96.60;;;;;;5093440;28;20111;-77
2022/04/16 00:33:33;;;;;;;0.80;0.70;;;11.40;96.70;;;;;;5093767;28;20048;-77
2022/04/16 00:36:02;;;;;;;1.38;0.85;;;11.30;97.00;;;;;;5091680;28;20078;-77
2022/04/16 00:38:28;;;;;;;0.80;0.77;;;11.30;97.20;;;;;;5092154;28;20049;-77
2022/04/16 00:40:55;;;;;;;0.80;0.80;;;11.30;96.90;;;;;;5092782;28;20087;-77
2022/04/16 00:43:27;;;;;;;1.10;0.80;;;11.30;97.00;;;;;;5092134;28;20020;-77
2022/04/16 00:45:53;;;;;;;0.85;0.75;;;11.20;97.30;;;;;;5091304;28;20031;-77
2022/04/16 00:48:20;;;;;;;1.73;0.98;;;11.20;97.50;;;;;;5093262;28;20035;-77
2022/04/16 00:50:49;;;;;;;0.80;0.80;;;11.10;97.40;;;;;;5091423;28;20500;-77
2022/04/16 00:53:16;;;;;;;0.60;0.60;;;11.10;97.80;;;;;;5091910;28;20024;-77
2022/04/16 00:55:42;;;;;;;1.20;1.00;;;11.10;97.90;;;;;;5092680;28;20082;-76
2022/04/16 00:58:08;;;;;;;1.52;0.70;;;11.00;98.10;;;;;;5091916;28;20031;-77
2022/04/16 01:00:34;;;;;;;1.52;0.77;;;11.00;98.10;;;;;;5095764;28;20081;-77
2022/04/16 01:03:00;;;;;;;1.08;0.90;;;10.90;98.30;;;;;;5096506;28;20020;-76
2022/04/16 01:05:26;;;;;;;3.08;1.00;;;10.90;98.40;;;;;;5095817;28;20119;-77
2022/04/16 01:07:53;;;;;;;1.63;0.70;;;10.90;98.30;;;;;;5095184;28;20043;-77
2022/04/16 01:10:26;;;;;;;1.48;0.85;;;10.90;98.40;;;;;;5095751;28;20031;-77
2022/04/16 01:12:52;;;;;;;1.13;0.80;;;10.90;98.50;;;;;;5095358;28;20032;-77
2022/04/16 01:15:20;;;;;;;1.58;1.00;;;10.80;98.70;;;;;;5095629;28;20111;-76
2022/04/16 01:17:47;;;;;;;1.45;0.80;;;10.70;98.70;;;;;;5095141;28;20521;-76
2022/04/16 01:20:14;;;;;;;0.90;0.80;;;10.70;98.70;;;;;;5095377;28;20035;-76
2022/04/16 01:22:40;;;;;;;1.33;0.90;;;10.70;99.10;;;;;;5096765;28;20035;-78
2022/04/16 01:25:07;;;;;;;1.20;1.00;;;10.70;99.00;;;;;;5094812;28;20120;-78
2022/04/16 01:27:35;;;;;;;1.10;1.00;;;10.70;99.20;;;;;;5095466;28;20032;-78
2022/04/16 01:30:03;;;;;;;2.28;1.05;;;10.60;99.50;;;;;;5096247;28;20059;-78
2022/04/16 01:32:29;;;;;;;1.20;1.10;;;10.50;99.80;;;;;;5095141;28;20028;-77
2022/04/16 01:34:55;;;;;;;1.20;1.08;;;10.50;99.90;;;;;;5096103;28;20024;-78
2022/04/16 01:37:23;;;;;;;2.50;1.10;;;10.50;99.90;;;;;;5095633;28;20427;-78
2022/04/16 01:39:48;;;;;;;1.48;1.10;;;10.40;99.90;;;;;;5095766;28;20028;-79
2022/04/16 01:42:14;;;;;;;2.42;1.95;;;10.40;99.90;;;;;;5095639;28;20385;-78
2022/04/16 01:44:42;;;;;;;2.28;1.30;;;10.30;99.90;;;;;;5095184;28;20028;-78
2022/04/16 01:47:10;;;;;;;2.53;1.40;;;10.30;99.90;;;;;;5094552;28;20028;-78
2022/04/16 01:49:36;;;;;;;2.40;1.38;;;10.20;99.90;;;;;;5095118;28;20035;-78
2022/04/16 01:52:02;;;;;;;1.88;1.30;;;10.20;99.90;;;;;;5095338;28;20059;-78
2022/04/16 01:54:28;;;;;;;1.90;1.40;;;10.20;99.90;;;;;;5095350;28;20031;-78
2022/04/16 01:56:54;;;;;;;2.20;1.33;;;10.20;99.90;;;;;;5094080;28;20048;-78
2022/04/16 01:59:20;;;;;;;1.20;1.10;;;10.10;99.90;;;;;;5095876;28;20400;-78
2022/04/16 02:01:45;;;;;;;2.92;1.63;;;10.10;99.90;;;;;;5094807;28;20358;-78
2022/04/16 02:04:11;;;;;;;1.98;1.45;;;10.10;99.90;;;;;;5094356;28;20028;-78
2022/04/16 02:06:36;;;;;;;2.55;1.45;;;10.10;99.90;;;;;;5095933;28;20580;-78
2022/04/16 02:09:03;;;;;;;2.47;1.42;;;10.10;99.90;;;;;;5094203;28;20463;-78
2022/04/16 02:11:30;;;;;;;1.70;1.50;;;10.10;99.90;;;;;;5093484;28;20031;-78
2022/04/16 02:13:56;;;;;;;1.83;1.30;;;10.10;99.90;;;;;;5093952;28;20530;-79
2022/04/16 02:16:21;;;;;;;3.70;1.73;;;10.10;99.90;;;;;;5094212;28;20020;-78
2022/04/16 02:18:47;;;;;;;2.65;1.52;;;10.00;99.90;;;;;;5094151;28;20123;-78
2022/04/16 02:21:12;;;;;;;1.88;1.33;;;10.00;99.90;;;;;;5093757;28;20031;-78
2022/04/16 02:23:38;;;;;;;2.90;1.40;;;9.90;99.90;;;;;;5094210;28;20024;-78
2022/04/16 02:26:06;;;;;;;2.50;1.45;;;9.90;99.90;;;;;;5093535;28;20063;-78
2022/04/16 02:28:32;;;;;;;2.38;1.30;;;9.80;99.90;;;;;;5094447;28;20099;-78
2022/04/16 02:30:58;;;;;;;1.33;1.23;;;9.80;99.90;;;;;;5093744;28;20036;-77
2022/04/16 02:33:23;;;;;;;2.47;1.08;;;9.70;99.90;;;;;;5094223;28;20093;-78
2022/04/16 02:35:49;;;;;;;1.95;1.30;;;9.70;99.90;;;;;;5094170;28;20020;-77
2022/04/16 02:38:15;;;;;;;1.38;1.20;;;9.70;99.90;;;;;;5093564;28;20442;-78
2022/04/16 02:40:40;;;;;;;1.80;1.20;;;9.70;99.90;;;;;;5094244;28;20071;-76
2022/04/16 02:43:06;;;;;;;1.63;1.10;;;9.70;99.90;;;;;;5093575;28;20089;-76
2022/04/16 02:48:16;;;;;;;1.98;1.20;;;9.60;99.90;;;;;;5095437;28;20474;-76
2022/04/16 02:50:41;;;;;;;3.13;1.50;;;9.60;99.90;;;;;;5093926;28;20035;-76
2022/04/16 02:53:07;;;;;;;1.80;1.38;;;9.60;99.90;;;;;;5093423;28;20036;-78
2022/04/16 02:55:33;;;;;;;1.63;1.40;;;9.60;99.90;;;;;;5093606;28;20077;-78
2022/04/16 02:57:58;;;;;;;1.63;1.20;;;9.50;99.90;;;;;;5094592;28;20475;-78
2022/04/16 03:00:26;;;;;;;1.25;1.10;;;9.50;99.90;;;;;;5093923;28;20032;-78
2022/04/16 03:02:52;;;;;;;2.30;1.30;;;9.40;99.90;;;;;;5093514;28;20059;-79
2022/04/16 03:05:18;;;;;;;1.92;1.40;;;9.50;99.90;;;;;;5093943;28;20028;-78
2022/04/16 03:07:44;;;;;;;2.60;1.35;;;9.50;99.90;;;;;;5093943;28;20028;-78
2022/04/16 03:10:10;;;;;;;2.13;1.23;;;9.50;99.90;;;;;;5094353;28;20035;-78
2022/04/16 03:12:47;;;;;;;2.03;1.60;;;9.40;99.90;;;;;;5093568;28;20028;-78
2022/04/16 03:17:59;;;;;;;1.98;1.50;;;9.40;99.90;;;;;;5094295;28;20057;-78
2022/04/16 03:20:25;;;;;;;2.75;1.60;;;9.40;99.90;;;;;;5094682;28;20031;-76
2022/04/16 03:22:51;;;;;;;3.58;1.48;;;9.30;99.90;;;;;;5094132;28;20024;-76
2022/04/16 03:25:17;;;;;;;1.70;1.33;;;9.30;99.90;;;;;;5094592;28;20547;-76
2022/04/16 03:27:43;;;;;;;2.35;1.35;;;9.20;99.90;;;;;;5093564;28;20050;-76
2022/04/16 03:30:09;;;;;;;3.03;1.60;;;9.20;99.90;;;;;;5093731;28;20480;-76
2022/04/16 03:32:39;;;;;;;1.92;1.40;;;9.10;99.90;;;;;;5093257;28;20020;-76
2022/04/16 03:35:06;;;;;;;1.40;1.30;;;9.10;99.90;;;;;;5094173;28;20024;-78
2022/04/16 03:37:35;;;;;;;1.60;1.40;;;9.10;99.90;;;;;;5094366;28;20381;-78
2022/04/16 03:40:02;;;;;;;3.20;1.55;;;9.00;99.90;;;;;;5093506;28;20089;-79
2022/04/16 03:42:28;;;;;;;1.75;1.40;;;9.10;99.90;;;;;;5093046;28;20508;-78
2022/04/16 03:44:54;;;;;;;2.22;1.40;;;9.10;99.90;;;;;;5092619;28;20028;-79
2022/04/16 03:47:19;;;;;;;2.03;1.50;;;9.10;99.90;;;;;;5093091;28;20024;-78
2022/04/16 03:49:45;;;;;;;3.03;1.30;;;9.00;99.90;;;;;;5093331;28;20024;-78
2022/04/16 03:52:11;;;;;;;1.60;1.45;;;9.00;99.90;;;;;;5093407;28;20093;-78
2022/04/16 04:00:08;;;;;;;2.30;1.60;;;9.00;99.90;;;;;;5093390;28;20074;-78
2022/04/16 04:02:36;;;;;;;2.25;1.30;;;9.00;99.90;;;;;;5093907;28;20020;-78
2022/04/16 04:05:04;;;;;;;1.73;1.40;;;9.00;99.90;;;;;;5092171;28;20454;-78
2022/04/16 04:07:29;;;;;;;2.40;1.50;;;8.90;99.90;;;;;;5092890;28;20055;-78
2022/04/16 04:09:55;;;;;;;1.75;1.30;;;8.90;99.90;;;;;;5091857;28;20070;-79
2022/04/16 04:12:20;;;;;;;2.05;1.65;;;8.80;99.90;;;;;;5093862;28;20049;-78
2022/04/16 04:14:47;;;;;;;2.22;1.75;;;8.80;99.90;;;;;;5092770;28;20028;-78
2022/04/16 04:17:14;;;;;;;3.03;1.40;;;8.70;99.90;;;;;;5093079;28;20419;-78
2022/04/16 04:19:41;;;;;;;2.25;1.25;;;8.70;99.90;;;;;;5093477;28;20036;-78
2022/04/16 04:22:09;;;;;;;2.80;1.80;;;8.60;99.90;;;;;;5091923;28;20107;-79
2022/04/16 04:24:39;;;;;;;1.85;1.65;;;8.60;99.90;;;;;;5092587;28;20059;-78
2022/04/16 04:27:06;;;;;;;2.53;1.30;;;8.60;99.90;;;;;;5091741;28;20111;-79
2022/04/16 04:29:32;;;;;;;1.52;1.30;;;8.60;99.90;;;;;;5092581;28;20397;-78
2022/04/16 04:31:57;;;;;;;2.15;1.48;;;8.50;99.90;;;;;;5091989;28;20106;-79
2022/04/16 04:34:24;;;;;;;2.85;1.55;;;8.50;99.90;;;;;;5091731;28;20020;-78
2022/04/16 04:36:49;;;;;;;2.08;1.50;;;8.50;99.90;;;;;;5092505;28;20031;-78
2022/04/16 04:39:16;;;;;;;2.55;1.70;;;8.40;99.90;;;;;;5092873;28;20032;-78
2022/04/16 04:41:43;;;;;;;1.77;1.35;;;8.50;99.90;;;;;;5093538;28;20430;-78
2022/04/16 04:44:15;;;;;;;3.33;1.80;;;8.50;99.90;;;;;;5091716;28;20362;-78
2022/04/16 04:46:42;;;;;;;2.05;1.50;;;8.50;99.90;;;;;;5093335;28;20020;-78
2022/04/16 04:49:08;;;;;;;6.07;1.80;;;8.40;99.90;;;;;;5092811;28;20453;-78
2022/04/16 04:51:41;;;;;;;3.00;1.88;;;8.40;99.90;;;;;;5092742;28;20082;-78
2022/04/16 04:54:07;;;;;;;2.03;1.60;;;8.40;99.90;;;;;;5091812;28;20052;-78
2022/04/16 04:56:34;;;;;;;1.83;1.35;;;8.50;99.90;;;;;;5091889;28;20131;-78
2022/04/16 04:58:59;;;;;;;2.33;1.60;;;8.40;99.90;;;;;;5092699;28;20032;-79
2022/04/16 05:01:25;;;;;;;3.40;1.63;;;8.40;99.90;;;;;;5093222;28;20028;-78
2022/04/16 05:03:51;;;;;;;1.73;1.58;;;8.50;99.90;;;;;;5092398;28;20034;-79
2022/04/16 05:06:17;;;;;;;1.83;1.45;;;8.40;99.90;;;;;;5091759;28;20035;-78
2022/04/16 05:08:45;;;;;;;2.63;1.60;;;8.50;99.90;;;;;;5093257;28;20035;-78
2022/04/16 05:11:11;;;;;;;3.72;1.63;;;8.40;99.90;;;;;;5092664;28;20028;-78
2022/04/16 05:13:37;;;;;;;2.03;1.60;;;8.50;99.90;;;;;;5092414;28;20123;-78
2022/04/16 05:16:03;;;;;;;2.15;1.20;;;8.40;99.90;;;;;;5091710;28;20024;-79
2022/04/16 05:18:28;;;;;;;2.97;1.52;;;8.40;99.90;;;;;;5092111;28;20035;-78
2022/04/16 05:20:54;;;;;;;1.83;1.63;;;8.50;99.90;;;;;;5091996;28;20032;-77
2022/04/16 05:23:20;;;;;;;1.58;1.30;;;8.50;99.90;;;;;;5092470;28;20054;-78
2022/04/16 05:25:45;;;;;;;2.13;1.48;;;8.60;99.90;;;;;;5093338;28;20121;-78
2022/04/16 05:28:11;;;;;;;2.53;1.70;;;8.70;99.90;;;;;;5080815;28;20126;-78
2022/04/16 05:30:58;;;;;;;2.50;1.80;;;8.60;99.90;;;;;;5090132;28;20039;-78
2022/04/16 05:36:09;;;;;;;2.20;1.73;;;8.80;99.90;;;;;;5075701;28;20101;-78
2022/04/16 05:38:34;;;;;;;1.83;1.50;;;8.80;99.90;;;;;;5088594;28;20036;-79
2022/04/16 05:41:00;;;;;;;2.42;1.73;;;8.90;99.90;;;;;;5085879;28;20531;-79
2022/04/16 05:43:26;;;;;;;3.22;1.88;;;9.00;99.90;;;;;;5086810;28;20134;-79
2022/04/16 05:45:52;;;;;;;2.78;1.90;;;9.00;99.90;;;;;;5090514;28;20468;-78
2022/04/16 05:48:18;;;;;;;2.60;1.90;;;9.10;99.90;;;;;;5092120;28;20101;-78
2022/04/16 05:50:44;;;;;;;3.03;1.73;;;9.10;99.90;;;;;;5092122;28;20059;-78
2022/04/16 05:53:14;;;;;;;2.20;1.88;;;9.20;99.90;;;;;;5092005;28;20035;-79
2022/04/16 05:55:43;;;;;;;2.63;1.90;;;9.20;99.90;;;;;;5091595;28;20460;-78
2022/04/16 05:58:09;;;;;;;3.55;1.95;;;9.20;99.90;;;;;;5091488;28;20038;-78
2022/04/16 06:00:36;;;;;;;2.13;1.70;;;9.30;99.90;;;;;;5093749;28;20040;-78
2022/04/16 06:03:03;;;;;;;2.38;1.70;;;9.30;99.90;;;;;;5091457;28;20077;-79
2022/04/16 06:05:31;;;;;;;2.30;1.70;;;9.30;99.90;;;;;;5091822;28;20055;-78
2022/04/16 06:07:57;;;;;;;2.75;1.90;;;9.40;99.90;;;;;;5092095;28;20027;-78
2022/04/16 06:10:22;;;;;;;2.70;1.70;;;9.40;99.90;;;;;;5092538;28;20040;-79
2022/04/16 06:12:48;;;;;;;3.05;1.80;;;9.50;99.90;;;;;;5092798;28;20445;-78
2022/04/16 06:15:14;;;;;;;2.83;1.60;;;9.50;99.90;;;;;;5091403;28;20032;-79
2022/04/16 06:17:40;;;;;;;2.65;1.83;;;9.60;99.90;;;;;;5093426;28;20111;-78
2022/04/16 06:20:07;;;;;;;3.58;2.00;;;9.70;99.90;;;;;;5091002;28;20032;-79
2022/04/16 06:22:33;;;;;;;3.00;2.20;;;9.70;99.90;;;;;;5091508;28;20056;-78
2022/04/16 06:24:58;;;;;;;2.28;1.70;;;9.80;99.90;;;;;;5092444;28;20538;-79
2022/04/16 06:27:24;;;;;;;4.40;1.90;;;9.90;99.90;;;;;;5090731;28;20031;-78
2022/04/16 06:29:49;;;;;;;3.60;1.90;;;9.90;99.90;;;;;;5091523;28;20031;-78
2022/04/16 06:32:15;;;;;;;3.92;2.28;;;10.10;99.90;;;;;;5092319;28;20047;-79
2022/04/16 06:34:41;;;;;;;2.90;2.13;;;10.10;99.90;;;;;;5092320;28;20049;-79
2022/04/16 06:37:07;;;;;;;2.97;1.90;;;10.20;99.90;;;;;;5090610;28;20063;-79
2022/04/16 06:39:32;;;;;;;2.63;2.03;;;10.20;99.90;;;;;;5090630;28;20036;-78
2022/04/16 06:41:58;;;;;;;3.30;2.20;;;10.30;99.90;;;;;;5078769;28;20483;-76
2022/04/16 06:44:24;;;;;;;3.53;2.20;;;10.40;99.90;;;;;;5091655;28;20031;-76
2022/04/16 06:46:50;;;;;;;4.10;2.13;;;10.50;99.90;;;;;;5091097;28;20023;-79
2022/04/16 06:49:16;;;;;;;4.05;2.22;;;10.40;99.90;;;;;;5090357;28;20032;-76
2022/04/16 06:51:42;;;;;;;6.28;2.63;;;10.50;99.90;;;;;;5090791;28;20077;-76
2022/04/16 06:54:08;;;;;;;3.45;2.40;;;10.50;99.90;;;;;;5091255;28;20521;-76
2022/04/16 06:56:33;;;;;;;4.68;2.30;;;10.60;99.90;;;;;;5090802;28;20051;-78
2022/04/16 06:59:00;;;;;;;2.70;2.10;;;10.60;99.90;;;;;;5091115;28;20084;-78
2022/04/16 07:01:26;;;;;;;4.18;2.15;;;10.70;99.90;;;;;;5091055;28;20106;-78
2022/04/16 07:03:51;;;;;;;4.68;2.65;;;10.80;99.90;;;;;;5091643;28;20077;-78
2022/04/16 07:06:17;;;;;;;3.78;2.30;;;10.90;99.90;;;;;;5089671;28;20028;-79
2022/04/16 07:08:43;;;;;;;5.25;2.20;;;10.90;99.90;;;;;;5090282;28;20546;-78
2022/04/16 07:11:08;;;;;;;3.58;2.22;;;11.00;99.90;;;;;;5090842;28;20107;-78
2022/04/16 07:13:34;;;;;;;4.72;2.38;;;11.10;99.90;;;;;;5091403;28;20024;-78
2022/04/16 07:16:00;;;;;;;3.50;2.50;;;11.20;99.90;;;;;;5091329;28;20031;-78
2022/04/16 07:18:26;;;;;;;3.67;2.38;;;11.20;99.90;;;;;;5090851;28;20034;-78
2022/04/16 07:20:51;;;;;;;4.07;2.10;;;11.30;99.90;;;;;;5090085;28;20042;-78
2022/04/16 07:23:17;;;;;;;4.13;2.58;;;11.40;99.90;;;;;;5090945;28;20027;-78
2022/04/16 07:25:43;;;;;;;2.90;2.15;;;11.50;99.90;;;;;;5089798;28;20323;-78
2022/04/16 07:28:10;;;;;;;4.25;2.28;;;11.50;99.90;;;;;;5090460;28;20126;-76
2022/04/16 07:30:36;;;;;;;5.15;2.75;;;11.60;99.90;;;;;;5090073;28;20040;-78
2022/04/16 07:33:02;;;;;;;4.78;2.53;;;11.60;99.90;;;;;;5089984;28;20032;-79
2022/04/16 07:35:28;;;;;;;4.07;2.50;;;11.70;99.90;;;;;;5090126;28;20039;-78
2022/04/16 07:37:57;;;;;;;3.47;2.50;;;11.80;99.90;;;;;;5089463;28;20111;-79
2022/04/16 07:40:26;;;;;;;4.32;2.80;;;11.90;99.90;;;;;;5090129;28;20538;-76
2022/04/16 07:42:52;;;;;;;4.63;2.60;;;12.00;99.90;;;;;;5079412;28;20032;-78
2022/04/16 07:45:17;;;;;;;3.28;2.22;;;12.20;99.90;;;;;;5088986;28;20028;-78
2022/04/16 07:47:43;;;;;;;4.45;2.38;;;12.20;99.90;;;;;;5089455;28;20078;-76
2022/04/16 07:50:09;;;;;;;4.28;2.90;;;12.30;99.90;;;;;;5089088;28;20327;-78
2022/04/16 07:52:35;;;;;;;3.33;2.58;;;12.30;99.90;;;;;;5089160;28;20039;-79
2022/04/16 07:55:00;;;;;;;4.00;2.65;;;12.40;99.90;;;;;;5089094;28;20032;-76
2022/04/16 07:57:26;;;;;;;5.32;2.55;;;12.40;99.90;;;;;;5088631;28;20071;-79
2022/04/16 07:59:53;;;;;;;4.10;2.50;;;12.40;99.90;;;;;;5090369;28;20531;-76
2022/04/16 08:02:20;;;;;;;3.55;2.25;;;12.50;99.90;;;;;;5088682;28;20032;-77
2022/04/16 08:04:45;;;;;;;3.50;2.35;;;12.50;99.90;;;;;;5089320;28;20031;-76
2022/04/16 08:07:11;;;;;;;3.95;2.50;;;12.60;99.90;;;;;;5090014;28;20032;-77
2022/04/16 08:09:36;;;;;;;4.80;2.58;;;12.70;99.90;;;;;;5090313;28;20388;-76
2022/04/16 08:12:03;;;;;;;3.40;2.40;;;12.70;99.90;;;;;;5077267;28;20046;-77
2022/04/16 08:14:28;;;;;;;5.00;2.63;;;12.80;99.90;;;;;;5088406;28;20035;-76
2022/04/16 08:16:54;;;;;;;2.78;1.90;;;12.80;99.90;;;;;;5088250;28;20028;-77
2022/04/16 08:19:19;;;;;;;4.18;2.05;;;12.80;99.90;;;;;;5088104;28;20465;-77
2022/04/16 08:21:45;;;;;;;3.75;2.00;;;12.90;99.90;;;;;;5088908;28;20058;-76
2022/04/16 08:26:36;;;;;;;4.43;2.00;;;12.70;99.90;;;;;;5090004;28;20043;-77
2022/04/16 08:29:02;;;;;;;2.95;2.03;;;12.70;99.90;;;;;;5089670;28;20032;-77
2022/04/16 08:31:28;;;;;;;4.20;2.53;;;12.70;99.90;;;;;;5088244;28;20024;-77
2022/04/16 08:33:54;;;;;;;3.55;1.92;;;12.70;99.90;;;;;;5088381;28;20035;-77
2022/04/16 08:36:20;;;;;;;4.43;2.20;;;12.80;99.90;;;;;;5087822;28;20067;-77
2022/04/16 08:38:46;;;;;;;4.40;2.25;;;12.80;99.90;;;;;;5088482;28;20055;-76
2022/04/16 08:41:12;;;;;;;4.65;2.17;;;12.90;99.90;;;;;;5081041;28;20527;-77
2022/04/16 08:43:39;;;;;;;3.30;1.95;;;13.00;99.90;;;;;;5083688;28;20395;-77
2022/04/16 08:46:06;;;;;;;3.63;2.28;;;13.10;99.90;;;;;;5088124;28;20028;-77
2022/04/16 08:48:32;;;;;;;4.20;2.30;;;13.20;99.90;;;;;;5088180;28;20029;-77
2022/04/16 08:50:59;;;;;;;3.35;2.20;;;13.20;99.90;;;;;;5089673;28;20036;-76
2022/04/16 08:53:25;;;;;;;3.10;2.35;;;13.30;99.90;;;;;;5088008;28;20381;-77
2022/04/16 08:55:50;;;;;;;4.10;2.13;;;13.30;99.90;;;;;;5089315;28;20048;-76
2022/04/16 08:58:16;;;;;;;3.78;2.15;;;13.20;99.70;;;;;;5087955;28;20085;-77
2022/04/16 09:00:41;;;;;;;4.80;2.40;;;13.20;99.20;;;;;;5088310;28;20047;-76
2022/04/16 09:03:09;;;;;;;4.20;2.50;;;13.20;99.00;;;;;;5089223;28;20024;-77
2022/04/16 09:05:35;;;;;;;4.20;2.13;;;13.20;99.00;;;;;;5088147;28;20039;-77
2022/04/16 09:08:03;;;;;;;4.50;2.78;;;13.20;99.30;;;;;;5088048;28;20548;-77
2022/04/16 09:10:31;;;;;;;5.68;2.75;;;13.30;98.40;;;;;;5089029;28;20031;-77
2022/04/16 09:12:58;;;;;;;3.78;2.80;;;13.50;98.10;;;;;;5089856;28;20040;-77
2022/04/16 09:15:26;;;;;;;4.55;2.67;;;13.40;97.80;;;;;;5089055;28;20153;-76
2022/04/16 09:17:59;;;;;;;5.20;2.90;;;13.40;98.70;;;;;;5088360;28;20095;-77
2022/04/16 09:20:31;;;;;;;4.53;2.70;;;13.30;98.50;;;;;;5088720;28;20066;-77
2022/04/16 09:22:56;;;;;;;4.10;2.40;;;13.30;98.10;;;;;;5093447;28;20442;-77
2022/04/16 09:25:22;;;;;;;4.38;2.60;;;13.20;97.60;;;;;;5091571;28;20032;-77
2022/04/16 09:27:50;;;;;;;3.47;2.60;;;13.10;96.80;;;;;;5092095;28;20056;-78
2022/04/16 09:30:23;;;;;;;4.38;2.70;;;13.20;98.20;;;;;;5092918;28;20031;-77
2022/04/16 09:32:48;;;;;;;4.88;3.05;;;13.30;97.00;;;;;;5093491;28;20111;-76
2022/04/16 09:35:40;;;;;;;3.67;2.38;;;13.30;97.60;;;;;;5092605;28;20103;-77
2022/04/16 09:38:10;;;;;;;3.72;2.15;;;13.40;97.50;;;;;;5091071;28;20036;-77
2022/04/16 09:40:36;;;;;;;2.80;1.92;;;13.50;96.50;;;;;;5089977;28;20089;-77
2022/04/16 09:43:04;;;;;;;4.18;2.60;;;13.60;96.80;;;;;;5089318;28;20397;-77
2022/04/16 09:45:31;;;;;;;4.10;2.70;;;13.70;96.50;;;;;;5091853;28;20028;-77
2022/04/16 09:47:58;;;;;;;3.35;2.25;;;13.80;96.10;;;;;;5091818;28;20085;-77
2022/04/16 09:50:25;;;;;;;3.65;2.80;;;13.70;94.50;;;;;;5092294;28;20024;-77
2022/04/16 09:53:01;;;;;;;3.47;2.35;;;13.80;95.20;;;;;;5091838;28;20111;-77
2022/04/16 09:55:27;;;;;;;5.90;2.58;;;13.70;95.10;;;;;;5092517;28;20074;-77
2022/04/16 09:57:57;;;;;;;4.57;2.90;;;13.50;95.20;;;;;;5091271;28;20529;-77
2022/04/16 10:00:24;;;;;;;4.28;2.45;;;13.50;94.30;;;;;;5090739;28;20036;-77
2022/04/16 10:02:51;;;;;;;3.17;2.00;;;13.60;94.40;;;;;;5093130;28;20076;-77
2022/04/16 10:05:17;;;;;;;3.50;2.17;;;13.50;93.10;;;;;;5091108;28;20035;-77
2022/04/16 10:07:44;;;;;;;3.55;2.15;;;13.50;93.70;;;;;;5090960;28;20127;-77
2022/04/16 10:10:17;;;;;;;3.70;2.50;;;13.60;94.80;;;;;;5091068;28;20362;-78
2022/04/16 10:13:01;;;;;;;3.25;2.10;;;13.60;93.50;;;;;;5071894;28;20221;-77
2022/04/16 10:15:53;;;;;;;3.00;2.10;;;13.60;94.00;;;;;;5070791;28;20028;-77
2022/04/16 10:18:18;;;;;;;3.75;2.72;;;13.60;92.80;;;;;;5071981;28;20029;-77
2022/04/16 10:20:55;;;;;;;4.10;2.17;;;13.60;93.80;;;;;;5071069;28;20051;-76
2022/04/16 10:23:39;;;;;;;4.53;2.63;;;13.60;94.50;;;;;;5070783;28;20086;-77
2022/04/16 10:26:13;;;;;;;2.85;1.90;;;13.80;94.40;;;;;;5070785;28;20503;-77
2022/04/16 10:28:43;;;;;;;2.85;1.92;;;13.80;92.70;;;;;;5070814;28;20039;-77
2022/04/16 10:31:28;;;;;;;3.17;2.10;;;13.90;93.40;;;;;;5072320;28;20120;-76
2022/04/16 10:34:11;;;;;;;3.10;1.75;;;14.10;91.40;;;;;;5070613;28;20059;-77
2022/04/16 10:36:52;;;;;;;2.28;1.50;;;14.30;90.10;;;;;;5080851;28;20024;-77
2022/04/16 10:39:23;;;;;;;2.63;1.48;;;14.60;90.40;;;;;;5090359;28;20032;-78
2022/04/16 10:41:56;;;;;;;2.70;1.77;;;14.90;90.80;;;;;;5090702;28;20031;-77
2022/04/16 10:44:23;;;;;;;2.97;1.92;;;14.90;88.70;;;;;;5090330;28;20170;-77
2022/04/16 10:46:50;;;;;;;3.33;1.92;;;14.90;87.00;;;;;;5090735;28;20469;-76
2022/04/16 10:49:18;;;;;;;3.72;1.70;;;14.90;87.40;;;;;;5089973;28;20461;-77
2022/04/16 10:51:44;;;;;;;2.03;1.33;;;15.00;86.90;;;;;;5091778;28;20559;-77
2022/04/16 10:54:11;;;;;;;3.03;1.45;;;15.00;85.10;;;;;;5090595;28;20028;-77
2022/04/16 10:56:39;;;;;;;2.00;1.40;;;15.10;84.10;;;;;;5089804;28;20063;-77
2022/04/16 10:59:06;;;;;;;2.13;1.73;;;15.10;83.90;;;;;;5091774;28;20377;-77
2022/04/16 11:01:32;;;;;;;1.75;1.17;;;15.30;85.80;;;;;;5090044;28;20695;-77
2022/04/16 11:03:57;;;;;;;2.67;1.40;;;15.50;86.00;;;;;;5087641;28;20028;-77
2022/04/16 11:06:35;;;;;;;2.95;1.15;;;15.50;81.90;;;;;;5088468;28;20028;-77
2022/04/16 11:09:01;;;;;;;2.28;1.50;;;15.50;80.50;;;;;;5090742;28;20035;-77
2022/04/16 11:11:27;;;;;;;1.27;1.13;;;15.50;77.80;;;;;;5080660;28;20385;-77
2022/04/16 11:13:56;;;;;;;1.65;1.00;;;15.70;78.10;;;;;;5069731;28;20375;-77
2022/04/16 11:16:22;;;;;;;1.42;1.10;;;15.80;80.90;;;;;;5070327;28;20063;-77
2022/04/16 11:18:48;;;;;;;2.97;1.30;;;15.70;78.00;;;;;;5071225;28;20028;-77
2022/04/16 11:21:21;;;;;;;1.88;1.40;;;15.80;77.30;;;;;;5069525;28;20039;-78
2022/04/16 11:23:48;;;;;;;3.95;1.77;;;15.90;74.70;;;;;;5069936;28;20400;-77
2022/04/16 11:34:32;;;;;;;2.78;1.58;;;15.50;72.90;;;;;;5068877;28;20512;-77
2022/04/16 11:36:58;;;;;;;3.15;1.73;;;15.40;73.90;;;;;;5082723;28;20439;-78
2022/04/16 11:39:37;;;;;;;2.30;1.60;;;15.30;72.30;;;;;;5088997;28;20043;-77
2022/04/16 11:42:10;;;;;;;1.80;1.35;;;15.10;74.80;;;;;;5089338;28;20392;-77
2022/04/16 11:44:39;;;;;;;1.63;1.30;;;15.00;73.50;;;;;;5088675;28;20027;-77
2022/04/16 11:47:10;;;;;;;2.13;1.50;;;15.00;78.30;;;;;;5089475;28;20035;-77
2022/04/16 11:49:37;;;;;;;1.35;1.10;;;15.00;73.40;;;;;;5090075;28;20032;-77
2022/04/16 11:52:04;;;;;;;2.35;1.20;;;14.90;74.70;;;;;;5089677;28;20028;-77
2022/04/16 11:54:30;;;;;;;1.33;1.00;;;14.90;76.70;;;;;;5089877;28;20020;-77
2022/04/16 11:56:57;;;;;;;1.77;1.30;;;15.10;74.60;;;;;;5090570;28;20051;-76
2022/04/16 11:59:26;;;;;;;1.13;0.98;;;15.20;77.30;;;;;;5090149;28;20036;-78
2022/04/16 12:02:06;;;;;;;1.70;1.10;;;15.30;76.30;;;;;;5089382;28;20127;-77
2022/04/16 12:04:35;;;;;;;2.17;1.00;;;15.50;77.70;;;;;;5088598;28;20032;-78
2022/04/16 12:07:01;;;;;;;1.95;1.10;;;15.40;72.80;;;;;;5090893;28;20074;-77
2022/04/16 12:09:27;;;;;;;2.38;0.90;;;15.50;74.00;;;;;;5089115;28;20473;-76
2022/04/16 12:11:55;;;;;;;1.10;1.00;;;15.70;75.00;;;;;;5077708;28;20033;-76
2022/04/16 12:14:23;;;;;;;2.53;1.13;;;15.80;71.90;;;;;;5068306;28;20028;-77
2022/04/16 12:17:02;;;;;;;1.50;1.15;;;15.90;71.60;;;;;;5069163;28;20572;-77
2022/04/16 12:19:30;;;;;;;1.55;1.08;;;16.00;71.80;;;;;;5069425;28;20474;-77
2022/04/16 12:21:57;;;;;;;1.77;1.00;;;16.10;71.20;;;;;;5068745;28;20046;-77
2022/04/16 12:24:29;;;;;;;1.80;1.05;;;16.30;73.00;;;;;;5069516;28;20032;-77
2022/04/16 12:26:58;;;;;;;1.38;1.00;;;16.50;67.60;;;;;;5068721;28;20432;-77
2022/04/16 12:29:28;;;;;;;2.25;1.10;;;16.40;65.80;;;;;;5069788;28;20071;-77
2022/04/16 12:31:58;;;;;;;2.40;1.17;;;16.60;66.70;;;;;;5068649;28;20071;-77
2022/04/16 12:34:27;;;;;;;1.25;0.90;;;16.80;67.80;;;;;;5069611;28;20120;-77
2022/04/16 12:36:54;;;;;;;1.42;0.88;;;16.90;63.90;;;;;;5080761;28;20064;-77
2022/04/16 12:39:20;;;;;;;1.23;0.90;;;17.10;62.00;;;;;;5088816;28;20031;-78
2022/04/16 12:41:45;;;;;;;1.27;0.98;;;17.30;62.20;;;;;;5076482;28;20032;-77
2022/04/16 12:44:11;;;;;;;3.30;0.80;;;17.20;59.60;;;;;;5068749;28;20032;-77
2022/04/16 12:46:37;;;;;;;1.42;0.98;;;17.30;60.50;;;;;;5067912;28;20051;-77
2022/04/16 12:49:02;;;;;;;1.98;1.00;;;17.50;58.40;;;;;;5069632;28;20107;-77
2022/04/16 12:51:28;;;;;;;1.92;0.93;;;17.70;61.30;;;;;;5069428;28;20515;-77
2022/04/16 12:53:53;;;;;;;1.38;0.85;;;17.90;60.90;;;;;;5068456;28;20081;-77
2022/04/16 12:56:19;;;;;;;1.60;1.17;;;18.10;59.90;;;;;;5070188;28;20059;-78
2022/04/16 12:58:45;;;;;;;3.40;1.80;;;18.30;60.10;;;;;;5072711;28;20033;-77
2022/04/16 13:01:11;;;;;;;1.85;1.20;;;18.40;56.90;;;;;;5072331;28;20043;-78
2022/04/16 13:03:36;;;;;;;1.63;1.40;;;18.50;55.20;;;;;;5072081;28;20067;-78
2022/04/16 13:06:02;;;;;;;1.17;1.00;;;18.60;55.60;;;;;;5073662;28;20035;-77
2022/04/16 13:08:30;;;;;;;2.33;1.17;;;18.70;54.20;;;;;;5071580;28;20029;-78
2022/04/16 13:10:56;;;;;;;1.77;1.00;;;18.80;53.80;;;;;;5072187;28;20039;-77
2022/04/16 13:13:23;;;;;;;1.58;1.00;;;18.90;52.60;;;;;;5072321;28;20058;-78
2022/04/16 13:15:50;;;;;;;1.63;1.10;;;19.20;52.60;;;;;;5073803;28;20055;-77